Time;durP1;ratioP1;P1;durP2;ratioP2;P2;SDS_P1;SDS_P2;PMS_P1;PMS_P2;Temp;Humidity;BMP_temperature;BMP_pressure;BME280_temperature;BME280_humidity;BME280_pressure;Samples;Min_cycle;Max_cycle;Signal;HPM_P1;HPM_P2
2023/01/19 00:00:37;;;;;;;0.38;0.38;;;0.40;99.90;;;0.02;nan;99588.63;5026916;28;20198;-65
2023/01/19 00:03:04;;;;;;;1.45;1.35;;;0.30;99.90;;;-0.03;nan;99587.13;5012085;28;20260;-65
2023/01/19 00:05:32;;;;;;;0.32;0.32;;;0.30;99.90;;;-0.07;nan;99577.91;5012816;28;20246;-66
2023/01/19 00:08:13;;;;;;;1.65;0.43;;;0.20;99.90;;;-0.07;nan;99593.28;5012811;28;20211;-63
2023/01/19 00:10:46;;;;;;;0.65;0.65;;;0.20;99.90;;;-0.06;nan;99588.97;5009763;28;20252;-64
2023/01/19 00:13:14;;;;;;;0.20;0.20;;;0.20;99.90;;;-0.08;nan;99586.50;5000760;28;20222;-65
2023/01/19 00:15:42;;;;;;;0.85;0.68;;;0.20;99.90;;;-0.07;nan;99597.59;5018895;28;20772;-66
2023/01/19 00:18:09;;;;;;;0.63;0.63;;;0.20;99.90;;;-0.07;nan;99605.28;5001612;28;20195;-65
2023/01/19 00:20:38;;;;;;;0.65;0.60;;;0.20;99.90;;;-0.07;nan;99600.16;5011049;28;20214;-65
2023/01/19 00:23:06;;;;;;;1.08;1.00;;;0.30;99.90;;;-0.09;nan;99600.22;5011133;28;20198;-63
2023/01/19 00:25:35;;;;;;;0.75;0.75;;;0.20;99.90;;;-0.09;nan;99597.66;5011219;28;20714;-65
2023/01/19 00:28:02;;;;;;;2.30;1.38;;;0.20;99.90;;;-0.12;nan;99595.22;5010015;28;20257;-64
2023/01/19 00:30:29;;;;;;;1.02;0.80;;;0.20;99.90;;;-0.10;nan;99606.25;5010889;28;20213;-65
2023/01/19 00:32:56;;;;;;;1.17;1.13;;;0.20;99.90;;;-0.10;nan;99606.25;4992555;28;20279;-65
2023/01/19 00:35:23;;;;;;;1.27;0.60;;;0.20;99.90;;;-0.07;nan;99607.84;5011686;28;20230;-65
2023/01/19 00:37:50;;;;;;;0.70;0.70;;;0.20;99.90;;;-0.08;nan;99611.28;5017294;28;20198;-65
2023/01/19 00:40:17;;;;;;;0.75;0.75;;;0.30;99.90;;;-0.10;nan;99606.25;5008534;28;20256;-65
2023/01/19 00:42:47;;;;;;;0.20;0.20;;;0.20;99.90;;;-0.10;nan;99608.81;5005333;28;20257;-65
2023/01/19 00:45:20;;;;;;;4.03;0.95;;;0.20;99.90;;;-0.09;nan;99623.28;5009616;28;20234;-65
2023/01/19 00:47:49;;;;;;;1.00;0.93;;;0.20;99.90;;;-0.11;nan;99626.81;5009812;28;20655;-65
2023/01/19 00:50:16;;;;;;;0.50;0.50;;;0.20;99.90;;;-0.09;nan;99622.47;5010725;28;20245;-65
2023/01/19 00:52:43;;;;;;;0.50;0.50;;;0.30;99.90;;;-0.13;nan;99626.06;5010788;28;20257;-65
2023/01/19 00:55:13;;;;;;;0.32;0.32;;;0.20;99.90;;;-0.16;nan;99632.16;5009561;28;20238;-65
2023/01/19 00:57:40;;;;;;;1.10;0.52;;;0.20;99.90;;;-0.20;nan;99630.63;5010298;28;20194;-65
2023/01/19 01:00:16;;;;;;;0.95;0.95;;;0.20;99.90;;;-0.23;nan;99632.47;5010082;28;20198;-65
2023/01/19 01:02:43;;;;;;;0.90;0.90;;;0.10;99.90;;;-0.26;nan;99628.34;5008050;28;20190;-65
2023/01/19 01:05:11;;;;;;;1.15;0.90;;;0.10;99.90;;;-0.24;nan;99638.50;5014426;28;20233;-65
2023/01/19 01:07:40;;;;;;;0.73;0.70;;;0.00;99.90;;;-0.27;nan;99639.47;5013659;28;20195;-64
2023/01/19 01:10:26;;;;;;;0.57;0.52;;;0.00;99.90;;;-0.22;nan;99636.72;5010532;28;20225;-64
2023/01/19 01:12:53;;;;;;;1.58;0.85;;;0.10;99.90;;;-0.22;nan;99640.13;4991632;28;20206;-66
2023/01/19 01:15:25;;;;;;;1.20;1.10;;;0.10;99.90;;;-0.21;nan;99639.19;5011332;28;20242;-65
2023/01/19 01:17:53;;;;;;;0.60;0.60;;;0.10;99.90;;;-0.20;nan;99638.31;4995494;28;20261;-65
2023/01/19 01:20:24;;;;;;;1.38;1.33;;;0.10;99.90;;;-0.19;nan;99639.97;5014043;28;20191;-66
2023/01/19 01:22:52;;;;;;;2.13;1.95;;;0.10;99.90;;;-0.16;nan;99639.84;5008356;28;20190;-66
2023/01/19 01:25:21;;;;;;;0.88;0.85;;;0.10;99.90;;;-0.14;nan;99644.88;4992543;28;20231;-65
2023/01/19 01:27:49;;;;;;;0.30;0.30;;;0.10;99.90;;;-0.15;nan;99645.81;5008831;28;20867;-66
2023/01/19 01:30:16;;;;;;;2.17;1.52;;;0.10;99.90;;;-0.16;nan;99644.97;5010858;28;20260;-66
2023/01/19 01:32:43;;;;;;;0.43;0.43;;;0.10;99.90;;;-0.20;nan;99646.00;5006496;28;20210;-66
2023/01/19 01:35:11;;;;;;;1.25;1.10;;;0.10;99.90;;;-0.16;nan;99644.97;5009874;28;20227;-66
2023/01/19 01:37:39;;;;;;;0.93;0.90;;;0.10;99.90;;;-0.19;nan;99642.53;5007612;28;20202;-67
2023/01/19 01:40:07;;;;;;;0.60;0.60;;;0.10;99.90;;;-0.21;nan;99651.19;5009436;28;20690;-65
2023/01/19 01:42:34;;;;;;;0.68;0.63;;;0.10;99.90;;;-0.24;nan;99644.47;5006779;28;20209;-66
2023/01/19 01:45:26;;;;;;;3.50;1.25;;;0.00;99.90;;;-0.25;nan;99650.50;5011019;28;20597;-66
2023/01/19 01:48:16;;;;;;;1.65;1.42;;;0.10;99.90;;;-0.28;nan;99657.50;4991969;28;20685;-66
2023/01/19 01:53:43;;;;;;;0.68;0.65;;;0.00;99.90;;;-0.25;nan;99653.06;4994572;28;20268;-66
2023/01/19 01:56:16;;;;;;;2.13;1.00;;;0.10;99.90;;;-0.25;nan;99647.94;4993416;28;20227;-66
2023/01/19 01:58:43;;;;;;;6.03;2.03;;;0.10;99.90;;;-0.32;nan;99645.72;4991368;28;20437;-66
2023/01/19 02:03:57;;;;;;;0.95;0.95;;;0.00;99.90;;;-0.30;nan;99654.16;5009601;28;20206;-64
2023/01/19 02:06:25;;;;;;;0.65;0.65;;;0.00;99.90;;;-0.33;nan;99652.56;5020613;28;20228;-66
2023/01/19 02:14:37;;;;;;;1.20;0.85;;;0.00;99.90;;;-0.35;nan;99648.38;5017284;28;20195;-66
2023/01/19 02:17:06;;;;;;;1.90;1.60;;;0.00;99.90;;;-0.36;nan;99650.13;5013787;28;20274;-66
2023/01/19 02:19:41;;;;;;;2.50;1.35;;;0.00;99.90;;;-0.36;nan;99649.31;5011154;28;20205;-66
2023/01/19 02:22:23;;;;;;;0.50;0.50;;;-0.10;99.90;;;-0.35;nan;99646.66;4996664;28;20198;-66
2023/01/19 02:24:50;;;;;;;0.47;0.32;;;0.00;99.90;;;-0.34;nan;99653.44;4995062;28;20559;-65
2023/01/19 02:27:18;;;;;;;2.65;1.85;;;0.00;99.90;;;-0.36;nan;99647.56;5014132;28;20195;-66
2023/01/19 02:29:45;;;;;;;2.13;1.83;;;0.00;99.90;;;-0.38;nan;99648.50;4994278;28;20203;-66
2023/01/19 02:32:12;;;;;;;1.55;1.45;;;0.00;99.90;;;-0.39;nan;99657.94;5013292;28;20206;-66
2023/01/19 02:34:39;;;;;;;1.17;1.17;;;-0.10;99.90;;;-0.40;nan;99647.75;5012644;28;20581;-66
2023/01/19 02:37:16;;;;;;;3.25;1.90;;;0.00;99.90;;;-0.43;nan;99643.59;5013175;28;20215;-66
2023/01/19 02:39:54;;;;;;;4.10;2.90;;;-0.10;99.90;;;-0.45;nan;99650.53;4992522;28;20212;-66
2023/01/19 02:42:31;;;;;;;1.95;1.55;;;-0.10;99.90;;;-0.40;nan;99655.44;4994382;28;20226;-65
2023/01/19 02:44:58;;;;;;;2.00;1.90;;;-0.10;99.90;;;-0.46;nan;99648.00;4994903;28;20198;-64
2023/01/19 02:47:25;;;;;;;4.93;2.88;;;-0.10;99.90;;;-0.49;nan;99656.66;5016477;28;20205;-65
2023/01/19 02:49:59;;;;;;;3.25;2.95;;;-0.10;99.90;;;-0.51;nan;99652.53;5027765;28;20198;-65
2023/01/19 02:52:27;;;;;;;3.40;1.90;;;-0.20;99.90;;;-0.53;nan;99654.31;5016825;28;20244;-65
2023/01/19 02:55:16;;;;;;;1.60;1.42;;;-0.20;99.90;;;-0.51;nan;99658.44;5011794;28;20217;-65
2023/01/19 02:58:15;;;;;;;1.00;0.95;;;-0.20;99.90;;;-0.53;nan;99662.00;5010504;28;20203;-65
2023/01/19 03:01:07;;;;;;;2.38;1.73;;;-0.20;99.90;;;-0.54;nan;99660.31;5013754;28;20199;-65
2023/01/19 03:03:59;;;;;;;2.22;1.23;;;-0.20;99.90;;;-0.55;nan;99651.78;5022145;28;20202;-65
2023/01/19 03:06:59;;;;;;;1.52;1.42;;;-0.20;99.90;;;-0.53;nan;99655.13;5014801;28;20719;-65
2023/01/19 03:09:34;;;;;;;1.30;1.17;;;-0.20;99.90;;;-0.52;nan;99654.25;4995311;28;20684;-65
2023/01/19 03:12:37;;;;;;;2.35;1.77;;;-0.20;99.90;;;-0.45;nan;99660.78;4994059;28;20209;-63
2023/01/19 03:15:53;;;;;;;1.40;1.30;;;-0.10;99.90;;;-0.29;nan;99666.91;5024515;28;20238;-65
2023/01/19 03:18:24;;;;;;;0.60;0.57;;;0.10;99.90;;;-0.24;nan;99657.28;4967225;28;20579;-66
2023/01/19 03:20:56;;;;;;;3.08;1.52;;;0.10;99.90;;;-0.20;nan;99663.09;5013024;28;20199;-66
2023/01/19 03:23:30;;;;;;;3.65;1.90;;;0.10;99.90;;;-0.15;nan;99649.19;4979997;28;20195;-66
2023/01/19 03:25:59;;;;;;;3.10;1.15;;;0.20;99.90;;;-0.16;nan;99656.94;5010248;28;20516;-66
2023/01/19 03:28:29;;;;;;;1.88;1.52;;;0.20;99.90;;;-0.13;nan;99662.75;5009678;28;20588;-66
2023/01/19 03:31:04;;;;;;;1.98;1.63;;;0.20;99.90;;;-0.06;nan;99664.16;5013059;28;20271;-65
2023/01/19 03:33:35;;;;;;;1.27;1.17;;;0.30;99.90;;;-0.03;nan;99671.75;5008426;28;20581;-66
2023/01/19 03:36:11;;;;;;;2.92;1.85;;;0.30;99.90;;;-0.01;nan;99674.22;5014534;28;20234;-65
2023/01/19 03:38:41;;;;;;;3.83;1.70;;;0.30;99.90;;;0.05;nan;99673.09;5015258;28;20191;-66
2023/01/19 03:41:14;;;;;;;2.92;1.48;;;0.40;99.90;;;0.08;nan;99667.84;4995817;28;20191;-65
2023/01/19 03:43:42;;;;;;;1.73;1.63;;;0.40;99.90;;;0.11;nan;99676.25;5009556;28;20195;-67
2023/01/19 03:46:11;;;;;;;2.45;1.23;;;0.40;99.90;;;0.15;nan;99666.69;5012361;28;20230;-66
2023/01/19 03:48:38;;;;;;;5.68;3.00;;;0.40;99.90;;;0.17;nan;99663.13;5002101;28;20208;-66
2023/01/19 03:51:08;;;;;;;0.93;0.93;;;0.50;99.90;;;0.19;nan;99668.22;4987274;28;20209;-68
2023/01/19 03:53:35;;;;;;;2.90;1.33;;;0.50;99.90;;;0.23;nan;99667.19;4994081;28;20218;-65
2023/01/19 03:56:02;;;;;;;2.92;2.65;;;0.60;99.90;;;0.19;nan;99660.53;4992796;28;20274;-67
2023/01/19 03:58:29;;;;;;;3.33;2.35;;;0.50;99.90;;;0.18;nan;99671.66;4992867;28;20214;-66
2023/01/19 04:00:56;;;;;;;5.50;3.30;;;0.50;99.90;;;0.14;nan;99676.13;5011607;28;20195;-66
2023/01/19 04:03:23;;;;;;;3.50;2.40;;;0.50;99.90;;;0.12;nan;99669.38;5008486;28;20198;-66
2023/01/19 04:05:50;;;;;;;1.58;1.48;;;0.40;99.90;;;0.12;nan;99671.94;5009594;28;20231;-67
2023/01/19 04:08:17;;;;;;;1.73;1.63;;;0.40;99.90;;;0.09;nan;99669.50;4993795;28;20739;-65
2023/01/19 04:10:44;;;;;;;5.30;3.60;;;0.40;99.90;;;0.08;nan;99671.25;5011664;28;20284;-67
2023/01/19 04:13:11;;;;;;;1.33;1.20;;;0.40;99.90;;;0.07;nan;99671.31;5011047;28;20206;-66
2023/01/19 04:15:38;;;;;;;5.15;3.75;;;0.40;99.90;;;0.02;nan;99674.09;5011465;28;20241;-68
2023/01/19 04:18:05;;;;;;;7.68;3.78;;;0.40;99.90;;;0.06;nan;99682.47;5008347;28;20623;-66
2023/01/19 04:20:32;;;;;;;5.32;3.50;;;0.40;99.90;;;0.06;nan;99683.31;5011202;28;20718;-67
2023/01/19 04:23:00;;;;;;;6.30;3.10;;;0.40;99.90;;;0.08;nan;99685.81;5009643;28;20260;-66
2023/01/19 04:25:28;;;;;;;0.75;0.75;;;0.40;99.90;;;0.06;nan;99693.59;5011791;28;20245;-66
2023/01/19 04:27:57;;;;;;;2.22;2.05;;;0.40;99.90;;;0.07;nan;99694.38;5009847;28;20207;-65
2023/01/19 04:30:25;;;;;;;1.33;1.20;;;0.40;99.90;;;0.06;nan;99690.19;5012005;28;20211;-67
2023/01/19 04:32:54;;;;;;;2.78;2.00;;;0.40;99.90;;;0.09;nan;99688.28;5007973;28;20268;-66
2023/01/19 04:35:21;;;;;;;1.17;0.70;;;0.40;99.90;;;0.10;nan;99689.13;5011958;28;20227;-67
2023/01/19 04:37:48;;;;;;;1.08;0.90;;;0.40;99.90;;;0.08;nan;99683.25;4991294;28;20675;-66
2023/01/19 04:40:15;;;;;;;3.47;1.85;;;0.40;99.90;;;0.09;nan;99687.47;5011095;28;20588;-66
2023/01/19 04:42:44;;;;;;;1.63;1.52;;;0.40;99.90;;;0.07;nan;99689.25;5006928;28;20664;-67
2023/01/19 04:45:12;;;;;;;1.90;1.25;;;0.40;99.90;;;0.04;nan;99691.97;5004344;28;20288;-66
2023/01/19 04:47:41;;;;;;;0.57;0.57;;;0.30;99.90;;;-0.04;nan;99682.88;5007304;28;20581;-65
2023/01/19 04:50:10;;;;;;;2.28;1.67;;;0.30;99.90;;;0.00;nan;99675.91;5010842;28;20202;-67
2023/01/19 04:52:37;;;;;;;0.40;0.40;;;0.30;99.90;;;0.02;nan;99668.13;5009690;28;20215;-64
2023/01/19 04:55:05;;;;;;;2.53;2.38;;;0.30;99.90;;;0.03;nan;99677.47;5011405;28;20222;-67
2023/01/19 04:57:32;;;;;;;2.08;1.70;;;0.30;99.90;;;0.02;nan;99670.69;5010255;28;20218;-67
2023/01/19 05:00:00;;;;;;;3.30;2.65;;;0.30;99.90;;;0.03;nan;99677.47;5009201;28;20213;-67
2023/01/19 05:02:26;;;;;;;2.97;2.13;;;0.30;99.90;;;-0.02;nan;99680.25;5008904;28;20280;-66
2023/01/19 05:04:53;;;;;;;2.60;2.17;;;0.30;99.90;;;-0.02;nan;99686.22;5013729;28;20575;-66
2023/01/19 05:07:20;;;;;;;1.67;1.30;;;0.30;99.90;;;0.01;nan;99690.38;5016039;28;20202;-66
2023/01/19 05:09:47;;;;;;;1.75;0.95;;;0.30;99.90;;;0.06;nan;99693.59;5007763;28;20589;-65
2023/01/19 05:12:15;;;;;;;0.60;0.60;;;0.40;99.90;;;0.18;nan;99692.19;5017162;28;20203;-66
2023/01/19 05:14:42;;;;;;;1.27;1.17;;;0.50;99.90;;;0.21;nan;99697.19;5025494;28;20208;-66
2023/01/19 05:17:09;;;;;;;2.25;1.17;;;0.50;99.90;;;0.25;nan;99696.16;5011017;28;20226;-65
2023/01/19 05:19:36;;;;;;;3.15;2.22;;;0.60;99.90;;;0.26;nan;99706.34;5008565;28;20187;-66
2023/01/19 05:22:05;;;;;;;2.70;1.77;;;0.60;99.90;;;0.29;nan;99697.69;4980289;28;20221;-64
2023/01/19 05:24:32;;;;;;;3.35;1.75;;;0.60;99.90;;;0.28;nan;99696.03;5019979;28;20672;-66
2023/01/19 05:26:59;;;;;;;2.30;1.70;;;0.60;99.90;;;0.30;nan;99689.91;5008765;28;20605;-65
2023/01/19 05:29:26;;;;;;;3.90;1.90;;;0.60;99.90;;;0.29;nan;99695.13;5007302;28;20198;-65
2023/01/19 05:31:53;;;;;;;1.75;1.58;;;0.60;99.90;;;0.23;nan;99690.25;5009211;28;20210;-65
2023/01/19 05:34:20;;;;;;;1.63;1.50;;;0.50;99.90;;;0.16;nan;99691.44;4991911;28;20686;-68
2023/01/19 05:36:47;;;;;;;1.85;0.88;;;0.50;99.90;;;0.04;nan;99685.13;5010386;28;20585;-65
2023/01/19 05:39:14;;;;;;;3.20;1.02;;;0.40;99.90;;;0.03;nan;99683.44;5007882;28;20210;-65
2023/01/19 05:41:41;;;;;;;1.13;0.90;;;0.30;99.90;;;-0.02;nan;99682.81;5011351;28;20581;-65
2023/01/19 05:44:08;;;;;;;1.52;1.38;;;0.30;99.90;;;-0.04;nan;99687.16;5014443;28;20195;-66
2023/01/19 05:46:35;;;;;;;2.35;2.00;;;0.20;99.90;;;-0.08;nan;99688.19;5010887;28;20225;-63
2023/01/19 05:49:03;;;;;;;1.20;1.05;;;0.20;99.90;;;-0.09;nan;99689.97;5022392;28;20209;-66
2023/01/19 05:51:34;;;;;;;2.20;2.08;;;0.20;99.90;;;-0.10;nan;99685.72;5016297;28;20236;-65
2023/01/19 05:54:01;;;;;;;10.63;3.35;;;0.20;99.90;;;-0.09;nan;99689.97;5015541;28;20206;-65
2023/01/19 05:56:28;;;;;;;1.60;0.63;;;0.20;99.90;;;-0.06;nan;99694.09;5017484;28;20226;-66
2023/01/19 05:58:55;;;;;;;3.40;1.88;;;0.20;99.90;;;-0.04;nan;99697.44;5014566;28;20209;-65
2023/01/19 06:01:22;;;;;;;3.35;0.88;;;0.20;99.90;;;-0.02;nan;99701.59;4999213;28;20256;-65
2023/01/19 06:03:49;;;;;;;2.17;1.25;;;0.30;99.90;;;-0.04;nan;99698.25;5021602;28;20198;-66
2023/01/19 06:06:16;;;;;;;3.03;0.75;;;0.20;99.90;;;-0.07;nan;99703.53;5020045;28;20233;-65
2023/01/19 06:08:44;;;;;;;3.50;2.30;;;0.20;99.90;;;-0.08;nan;99707.00;5016073;28;20213;-65
2023/01/19 06:11:11;;;;;;;0.52;0.52;;;0.20;99.90;;;-0.07;nan;99707.84;5016565;28;20236;-67
2023/01/19 06:13:39;;;;;;;0.52;0.52;;;0.20;99.90;;;-0.06;nan;99714.59;5015696;28;20210;-66
2023/01/19 06:16:08;;;;;;;1.85;1.67;;;0.20;99.90;;;-0.14;nan;99716.69;5016811;28;20612;-65
2023/01/19 06:18:35;;;;;;;4.18;2.25;;;0.20;99.90;;;-0.12;nan;99717.44;5012343;28;20194;-65
2023/01/19 06:21:07;;;;;;;0.73;0.70;;;0.20;99.90;;;-0.11;nan;99714.81;5016874;28;20199;-65
2023/01/19 06:23:35;;;;;;;0.75;0.60;;;0.20;99.90;;;-0.14;nan;99730.34;5014429;28;20191;-66
2023/01/19 06:26:02;;;;;;;1.90;1.10;;;0.20;99.90;;;-0.06;nan;99727.44;5017389;28;20283;-65
2023/01/19 06:28:30;;;;;;;2.38;1.95;;;0.20;99.90;;;-0.08;nan;99722.38;5015219;28;20194;-66
2023/01/19 06:30:57;;;;;;;1.92;1.05;;;0.30;99.90;;;-0.05;nan;99726.53;4998893;28;20202;-65
2023/01/19 06:33:25;;;;;;;1.25;1.15;;;0.30;99.90;;;0.01;nan;99728.84;5014066;28;20742;-66
2023/01/19 06:35:52;;;;;;;4.72;1.08;;;0.30;99.90;;;0.07;nan;99733.69;5021139;28;20751;-67
2023/01/19 06:38:19;;;;;;;0.88;0.88;;;0.40;99.90;;;0.07;nan;99736.25;5025247;28;20294;-67
2023/01/19 06:40:53;;;;;;;1.00;1.00;;;0.40;99.90;;;0.04;nan;99738.13;5032859;28;20205;-66
2023/01/19 06:43:21;;;;;;;0.77;0.75;;;0.40;99.90;;;0.07;nan;99738.00;5001468;28;20208;-65
2023/01/19 06:45:49;;;;;;;1.73;1.63;;;0.30;99.90;;;0.09;nan;99744.72;5026861;28;20231;-66
2023/01/19 06:48:16;;;;;;;1.20;0.80;;;0.40;99.90;;;0.18;nan;99739.19;5012389;28;20470;-66
2023/01/19 06:50:47;;;;;;;1.85;0.93;;;0.50;99.90;;;0.14;nan;99744.53;5005918;28;20207;-66
2023/01/19 06:53:15;;;;;;;3.00;2.15;;;0.50;99.90;;;0.18;nan;99751.19;5031610;28;20208;-65
2023/01/19 06:55:43;;;;;;;6.40;3.40;;;0.50;99.90;;;0.14;nan;99747.94;5012992;28;20226;-66
2023/01/19 06:58:10;;;;;;;3.00;2.13;;;0.50;99.90;;;0.17;nan;99752.09;5013008;28;20227;-66
2023/01/19 07:00:37;;;;;;;1.60;1.48;;;0.50;99.90;;;0.18;nan;99761.44;5012338;28;20202;-64
2023/01/19 07:03:19;;;;;;;1.50;1.40;;;0.50;99.90;;;0.22;nan;99752.72;5000568;28;20269;-66
2023/01/19 07:05:49;;;;;;;4.00;1.33;;;0.50;99.90;;;0.25;nan;99762.84;5021313;28;20215;-67
2023/01/19 07:08:16;;;;;;;0.70;0.70;;;0.50;99.90;;;0.25;nan;99768.00;4994950;28;20202;-65
2023/01/19 07:10:43;;;;;;;3.38;2.17;;;0.60;99.90;;;0.24;nan;99763.75;5010891;28;20236;-66
2023/01/19 07:13:31;;;;;;;1.90;1.77;;;0.50;99.90;;;0.23;nan;99768.06;5012866;28;20289;-66
2023/01/19 07:15:58;;;;;;;0.43;0.43;;;0.50;99.90;;;0.24;nan;99769.72;5001604;28;20292;-66
2023/01/19 07:18:25;;;;;;;0.82;0.82;;;0.50;99.90;;;0.27;nan;99768.75;5008045;28;20263;-66
2023/01/19 07:20:52;;;;;;;1.00;0.75;;;0.50;99.90;;;0.26;nan;99772.19;5017702;28;20670;-64
2023/01/19 07:23:19;;;;;;;4.10;2.30;;;0.50;99.90;;;0.28;nan;99776.38;5020185;28;20577;-66
2023/01/19 07:25:46;;;;;;;3.30;1.48;;;0.60;99.90;;;0.32;nan;99777.91;5010603;28;20226;-64
2023/01/19 07:28:15;;;;;;;2.30;1.48;;;0.60;99.90;;;0.34;nan;99783.78;5009845;28;20675;-67
2023/01/19 07:30:42;;;;;;;1.02;1.02;;;0.60;99.90;;;0.38;nan;99789.66;4989394;28;20210;-67
2023/01/19 07:33:09;;;;;;;1.45;0.93;;;0.70;99.90;;;0.41;nan;99782.63;5000478;28;20203;-67
2023/01/19 07:35:36;;;;;;;1.65;1.38;;;0.70;99.90;;;0.49;nan;99803.66;5019273;28;20434;-67
2023/01/19 07:38:03;;;;;;;3.60;1.48;;;0.80;99.90;;;0.54;nan;99803.47;5012514;28;20233;-66
2023/01/19 07:40:30;;;;;;;0.28;0.28;;;0.80;99.90;;;0.57;nan;99804.16;5008068;28;20206;-67
2023/01/19 07:42:57;;;;;;;0.30;0.30;;;0.90;99.90;;;0.59;nan;99804.09;5009746;28;20195;-66
2023/01/19 07:45:26;;;;;;;0.80;0.80;;;0.90;99.90;;;0.65;nan;99812.38;5010462;28;20293;-67
2023/01/19 07:47:53;;;;;;;3.47;2.45;;;1.00;99.90;;;0.68;nan;99812.22;5012415;28;20194;-67
2023/01/19 07:50:23;;;;;;;3.30;2.53;;;1.00;99.90;;;0.74;nan;99816.25;5017646;28;20206;-67
2023/01/19 07:52:52;;;;;;;3.17;2.88;;;1.00;99.90;;;0.77;nan;99816.09;5028288;28;20267;-67
2023/01/19 07:55:20;;;;;;;4.07;1.98;;;1.10;99.90;;;0.82;nan;99819.31;5014317;28;20284;-67
2023/01/19 07:57:50;;;;;;;4.38;2.95;;;1.10;99.90;;;0.88;nan;99818.19;4994120;28;20229;-66
2023/01/19 08:00:20;;;;;;;2.78;2.35;;;1.20;99.90;;;0.91;nan;99821.47;5009860;28;20206;-66
2023/01/19 08:02:51;;;;;;;4.85;1.92;;;1.20;99.90;;;0.94;nan;99823.06;5012394;28;20814;-67
2023/01/19 08:05:19;;;;;;;3.33;2.55;;;1.20;99.90;;;0.93;nan;99813.69;4993071;28;20264;-66
2023/01/19 08:07:47;;;;;;;1.70;1.60;;;1.30;99.90;;;0.92;nan;99819.69;4999207;28;20597;-66
2023/01/19 08:10:15;;;;;;;1.98;1.77;;;1.20;99.90;;;0.92;nan;99825.69;5001749;28;20214;-66
2023/01/19 08:12:42;;;;;;;1.35;1.30;;;1.20;99.90;;;0.96;nan;99826.41;5011005;28;20202;-66
2023/01/19 08:15:09;;;;;;;0.90;0.85;;;1.20;99.90;;;0.99;nan;99821.09;5012620;28;20605;-65
2023/01/19 08:17:37;;;;;;;2.88;2.22;;;1.30;99.90;;;1.00;nan;99821.03;5009542;28;20207;-65
2023/01/19 08:20:05;;;;;;;4.82;2.78;;;1.30;99.90;;;1.05;nan;99826.78;5009709;28;20203;-62
2023/01/19 08:22:32;;;;;;;1.85;1.75;;;1.30;99.90;;;1.07;nan;99824.16;4994951;28;20557;-65
2023/01/19 08:24:59;;;;;;;1.15;1.13;;;1.40;99.90;;;1.07;nan;99814.72;5011154;28;20284;-66
2023/01/19 08:27:26;;;;;;;2.75;1.55;;;1.40;99.90;;;1.12;nan;99817.91;5009654;28;20213;-65
2023/01/19 08:29:53;;;;;;;0.57;0.57;;;1.40;99.90;;;1.16;nan;99819.44;5009198;28;20593;-66
2023/01/19 08:32:20;;;;;;;4.07;2.92;;;1.40;99.90;;;1.20;nan;99823.53;5009396;28;20211;-66
2023/01/19 08:34:47;;;;;;;2.08;1.42;;;1.50;99.90;;;1.22;nan;99824.28;5008807;28;20221;-65
2023/01/19 08:37:14;;;;;;;1.90;1.63;;;1.50;99.90;;;1.27;nan;99822.34;5009442;28;20234;-66
2023/01/19 08:39:41;;;;;;;3.38;1.67;;;1.60;99.90;;;1.34;nan;99822.88;5009265;28;20199;-66
2023/01/19 08:42:08;;;;;;;0.75;0.75;;;1.60;99.90;;;1.38;nan;99820.09;5000111;28;20260;-66
2023/01/19 08:44:35;;;;;;;3.30;1.92;;;1.70;99.90;;;1.40;nan;99823.44;4997176;28;20187;-65
2023/01/19 08:47:06;;;;;;;0.70;0.65;;;1.70;99.90;;;1.47;nan;99827.34;4997602;28;20603;-65
2023/01/19 08:49:33;;;;;;;0.77;0.63;;;1.70;99.90;;;1.52;nan;99827.97;5009370;28;20213;-66
2023/01/19 08:52:01;;;;;;;2.97;2.35;;;1.80;99.90;;;1.56;nan;99832.06;5009385;28;20210;-66
2023/01/19 08:54:28;;;;;;;4.97;3.13;;;1.80;99.90;;;1.57;nan;99820.06;5011432;28;20440;-66
2023/01/19 08:56:55;;;;;;;8.07;3.30;;;1.90;99.90;;;1.58;nan;99826.03;5009436;28;20226;-65
2023/01/19 08:59:22;;;;;;;0.95;0.95;;;1.90;99.90;;;1.63;nan;99819.75;5009718;28;20592;-63
2023/01/19 09:01:49;;;;;;;1.10;1.00;;;1.90;99.90;;;1.66;nan;99823.91;5008029;28;20268;-65
2023/01/19 09:04:16;;;;;;;0.57;0.57;;;1.90;99.90;;;1.69;nan;99818.59;5014014;28;20199;-66
2023/01/19 09:06:43;;;;;;;0.40;0.40;;;1.90;99.90;;;1.70;nan;99823.69;5009933;28;20222;-66
2023/01/19 09:09:10;;;;;;;2.95;1.58;;;2.00;99.90;;;1.73;nan;99817.56;5007317;28;20202;-66
2023/01/19 09:11:37;;;;;;;2.33;1.35;;;2.00;99.90;;;1.74;nan;99816.66;5002250;28;20215;-62
2023/01/19 09:14:04;;;;;;;5.47;2.97;;;2.00;99.90;;;1.82;nan;99819.69;5001558;28;20634;-67
2023/01/19 09:16:34;;;;;;;0.75;0.75;;;2.00;99.90;;;1.86;nan;99818.63;5006005;28;20231;-65
2023/01/19 09:19:01;;;;;;;8.27;4.55;;;2.10;99.90;;;1.88;nan;99814.22;5005882;28;20775;-66
2023/01/19 09:21:28;;;;;;;1.25;0.82;;;2.20;99.90;;;1.92;nan;99816.56;5007615;28;20211;-66
2023/01/19 09:23:56;;;;;;;1.83;1.35;;;2.20;99.90;;;1.96;nan;99818.09;4994998;28;20618;-67
2023/01/19 09:26:23;;;;;;;2.33;1.27;;;2.20;99.90;;;1.97;nan;99818.94;5013714;28;20221;-66
2023/01/19 09:28:50;;;;;;;3.42;2.20;;;2.30;99.90;;;1.98;nan;99818.03;5014187;28;20214;-66
2023/01/19 09:31:17;;;;;;;2.10;1.42;;;2.30;99.90;;;2.03;nan;99816.03;5010424;28;20216;-66
2023/01/19 09:33:44;;;;;;;9.52;3.53;;;2.30;99.90;;;2.04;nan;99810.84;5007046;28;20691;-70
2023/01/19 09:36:11;;;;;;;1.17;1.10;;;2.30;99.90;;;2.11;nan;99813.91;5004289;28;20744;-65
2023/01/19 09:38:38;;;;;;;1.60;0.90;;;2.40;99.90;;;2.15;nan;99812.88;4999264;28;20227;-66
2023/01/19 09:41:18;;;;;;;2.88;1.52;;;2.40;99.90;;;2.22;nan;99809.91;5014444;28;20210;-67
2023/01/19 09:43:53;;;;;;;2.83;2.53;;;2.50;99.90;;;2.30;nan;99806.91;5012309;28;20210;-66
2023/01/19 09:46:26;;;;;;;6.07;1.98;;;2.60;99.90;;;2.33;nan;99811.94;5009011;28;20576;-66
2023/01/19 09:48:57;;;;;;;2.25;2.15;;;2.60;99.90;;;2.32;nan;99811.09;5008060;28;20623;-65
2023/01/19 09:51:25;;;;;;;0.82;0.50;;;2.60;99.90;;;2.35;nan;99816.09;4994356;28;20681;-67
2023/01/19 09:54:15;;;;;;;3.25;2.63;;;2.60;99.90;;;2.40;nan;99821.00;5017495;28;20670;-71
2023/01/19 09:56:48;;;;;;;1.67;1.58;;;2.70;99.90;;;2.45;nan;99819.00;4990316;28;20223;-66
2023/01/19 09:59:31;;;;;;;9.48;6.15;;;2.70;99.90;;;2.59;nan;99814.00;5008041;28;20213;-68
2023/01/19 10:02:41;;;;;;;7.45;4.93;;;2.80;99.90;;;2.69;nan;99820.31;4990231;28;20265;-65
2023/01/19 10:05:20;;;;;;;7.03;4.18;;;2.90;99.90;;;2.81;nan;99826.59;4992920;28;20235;-66
2023/01/19 10:08:08;;;;;;;6.43;5.03;;;3.10;99.90;;;2.87;nan;99827.09;5016444;28;20769;-66
2023/01/19 10:10:39;;;;;;;5.90;4.43;;;3.10;99.90;;;2.94;nan;99825.00;5001905;28;20225;-68
2023/01/19 10:13:33;;;;;;;5.00;3.40;;;3.20;99.90;;;2.99;nan;99829.00;4991001;28;20614;-65
2023/01/19 10:16:06;;;;;;;1.27;0.73;;;3.20;99.90;;;3.04;nan;99821.03;4990543;28;20234;-67
2023/01/19 10:18:50;;;;;;;8.70;6.05;;;3.30;99.90;;;3.10;nan;99821.53;4991785;28;20569;-68
2023/01/19 10:21:24;;;;;;;6.50;5.22;;;3.30;99.90;;;3.15;nan;99829.81;5008723;28;20210;-65
2023/01/19 10:24:06;;;;;;;3.75;2.92;;;3.40;99.90;;;3.25;nan;99829.34;4992476;28;20191;-66
2023/01/19 10:26:39;;;;;;;8.80;5.50;;;3.50;99.90;;;3.33;nan;99822.00;5007735;28;20253;-67
2023/01/19 10:29:35;;;;;;;3.78;3.45;;;3.60;99.90;;;3.44;nan;99830.00;4994741;28;20233;-70
2023/01/19 10:32:21;;;;;;;6.07;4.65;;;3.70;99.90;;;3.55;nan;99827.66;5011850;28;20209;-70
2023/01/19 10:34:50;;;;;;;6.32;2.65;;;3.80;99.90;;;3.77;nan;99828.94;5013260;28;20213;-65
2023/01/19 10:37:17;;;;;;;7.10;3.55;;;4.00;99.90;;;4.06;nan;99834.19;5013514;28;20217;-66
2023/01/19 10:39:53;;;;;;;3.38;2.65;;;4.20;99.90;;;4.33;nan;99837.72;5020118;28;20682;-67
2023/01/19 10:42:20;;;;;;;2.45;1.45;;;4.50;99.90;;;4.64;nan;99835.00;4994773;28;20186;-68
2023/01/19 10:44:49;;;;;;;3.08;1.27;;;4.90;99.90;;;4.82;nan;99845.97;5012831;28;20195;-68
2023/01/19 10:47:19;;;;;;;3.15;2.13;;;5.00;99.90;;;4.95;nan;99841.72;4994597;28;20267;-66
2023/01/19 10:49:47;;;;;;;3.20;2.65;;;5.20;99.90;;;4.90;nan;99834.22;5012691;28;20198;-66
2023/01/19 10:52:32;;;;;;;6.55;4.35;;;5.20;99.90;;;4.89;nan;99837.75;5003966;28;20202;-70
2023/01/19 10:55:02;;;;;;;4.55;3.63;;;5.10;99.90;;;4.92;nan;99839.31;5022152;28;20210;-67
2023/01/19 10:57:42;;;;;;;0.40;0.40;;;5.20;99.90;;;4.75;nan;99834.34;5008379;28;20637;-66
2023/01/19 11:00:36;;;;;;;1.27;1.17;;;5.00;99.90;;;4.55;nan;99827.78;5012043;28;20261;-66
2023/01/19 11:03:30;;;;;;;1.80;0.60;;;4.80;99.90;;;4.41;nan;99832.94;5009094;28;20210;-66
2023/01/19 11:06:27;;;;;;;2.60;2.00;;;4.70;99.90;;;4.21;nan;99828.97;5016033;28;20707;-67
2023/01/19 11:09:19;;;;;;;2.15;1.38;;;4.50;99.90;;;4.10;nan;99830.50;5008504;28;20205;-67